Time;durP1;ratioP1;P1;durP2;ratioP2;P2;SDS_P1;SDS_P2;PMS_P1;PMS_P2;Temp;Humidity;BMP_temperature;BMP_pressure;BME280_temperature;BME280_humidity;BME280_pressure;Samples;Min_cycle;Max_cycle;Signal;HPM_P1;HPM_P2
2022/03/06 00:00:50;;;;;;;;;;;;;;;20.40;39.63;102017.75;5075764;28;4246;-50
2022/03/06 00:03:17;;;;;;;;;;;;;;;20.41;39.59;102021.38;5076136;28;4089;-51
2022/03/06 00:05:43;;;;;;;;;;;;;;;20.40;39.56;102025.63;5077575;28;4102;-51
2022/03/06 00:08:10;;;;;;;;;;;;;;;20.39;39.58;102019.13;5077191;28;5220;-48
2022/03/06 00:10:36;;;;;;;;;;;;;;;20.42;39.59;102023.63;5077604;28;4044;-48
2022/03/06 00:13:03;;;;;;;;;;;;;;;20.41;39.69;102027.88;5058475;28;4024;-48
2022/03/06 00:15:29;;;;;;;;;;;;;;;20.40;39.60;102022.75;5076390;28;4153;-48
2022/03/06 00:17:55;;;;;;;;;;;;;;;20.39;39.73;102019.13;5077130;28;4125;-48
2022/03/06 00:20:22;;;;;;;;;;;;;;;20.39;39.59;102016.25;5075494;28;3987;-47
2022/03/06 00:22:48;;;;;;;;;;;;;;;20.38;39.67;102011.84;5075751;28;4106;-48
2022/03/06 00:25:15;;;;;;;;;;;;;;;20.38;39.60;102011.84;5075213;28;4128;-49
2022/03/06 00:27:41;;;;;;;;;;;;;;;20.37;39.57;102016.13;5076736;28;4050;-51
2022/03/06 00:30:07;;;;;;;;;;;;;;;20.37;39.43;102019.00;5076205;28;4228;-51
2022/03/06 00:32:34;;;;;;;;;;;;;;;20.37;39.50;102010.34;5076406;28;4205;-50
2022/03/06 00:35:00;;;;;;;;;;;;;;;20.36;39.46;102014.59;5074674;28;4077;-50
2022/03/06 00:37:27;;;;;;;;;;;;;;;20.38;39.48;102022.63;5077369;28;4150;-48
2022/03/06 00:39:53;;;;;;;;;;;;;;;20.38;39.35;102017.59;5077625;28;4167;-48
2022/03/06 00:42:19;;;;;;;;;;;;;;;20.40;39.47;102026.38;5075837;28;4051;-50
2022/03/06 00:44:46;;;;;;;;;;;;;;;20.39;39.53;102029.88;5075941;28;4064;-50
2022/03/06 00:47:12;;;;;;;;;;;;;;;20.40;39.49;102022.75;5073489;28;4084;-50
2022/03/06 00:49:39;;;;;;;;;;;;;;;20.41;39.63;102027.13;5076913;28;4413;-48
2022/03/06 00:52:05;;;;;;;;;;;;;;;20.40;39.60;102023.50;5075776;28;4184;-47
2022/03/06 00:54:31;;;;;;;;;;;;;;;20.40;39.47;102019.88;5073837;28;3996;-48
2022/03/06 00:56:58;;;;;;;;;;;;;;;20.41;39.58;102025.00;5078289;28;5210;-52
2022/03/06 00:59:24;;;;;;;;;;;;;;;20.40;39.59;102023.50;5079612;28;4123;-48
2022/03/06 01:01:50;;;;;;;;;;;;;;;20.39;39.56;102029.88;5078383;28;5139;-50
2022/03/06 01:04:17;;;;;;;;;;;;;;;20.38;39.63;102017.59;5081194;28;4021;-50
2022/03/06 01:06:43;;;;;;;;;;;;;;;20.37;39.52;102016.13;5077069;28;4104;-48
2022/03/06 01:09:10;;;;;;;;;;;;;;;20.38;39.58;102017.59;5080358;28;3964;-49
2022/03/06 01:11:36;;;;;;;;;;;;;;;20.38;39.57;102023.34;5080992;28;4120;-48
2022/03/06 01:14:03;;;;;;;;;;;;;;;20.38;39.51;102029.13;5080890;28;4365;-48
2022/03/06 01:16:29;;;;;;;;;;;;;;;20.38;39.51;102019.75;5080139;28;4281;-49
2022/03/06 01:18:56;;;;;;;;;;;;;;;20.36;39.62;102026.09;5080172;28;4200;-48
2022/03/06 01:21:22;;;;;;;;;;;;;;;20.37;39.52;102021.88;5080389;28;3941;-47
2022/03/06 01:23:48;;;;;;;;;;;;;;;20.35;39.48;102024.59;5080358;28;4125;-48
2022/03/06 01:26:16;;;;;;;;;;;;;;;20.36;39.41;102020.34;5077905;28;4041;-48
2022/03/06 01:28:42;;;;;;;;;;;;;;;20.36;39.68;102017.47;5080187;28;4012;-50
2022/03/06 01:31:08;;;;;;;;;;;;;;;20.36;39.50;102008.84;5080555;28;4115;-48
2022/03/06 01:33:35;;;;;;;;;;;;;;;20.38;39.45;102011.84;5078203;28;4261;-52
2022/03/06 01:36:01;;;;;;;;;;;;;;;20.38;39.61;102011.84;5079311;28;4060;-49
2022/03/06 01:38:28;;;;;;;;;;;;;;;20.38;39.59;102013.97;5080418;28;4043;-49
2022/03/06 01:40:54;;;;;;;;;;;;;;;20.38;39.54;102011.84;5080358;28;4030;-50
2022/03/06 01:43:20;;;;;;;;;;;;;;;20.39;39.63;102013.38;5079854;28;5345;-48
2022/03/06 01:45:47;;;;;;;;;;;;;;;20.39;39.55;102013.38;5078595;28;3966;-49
2022/03/06 01:48:13;;;;;;;;;;;;;;;20.39;39.50;102013.38;5079276;28;4109;-48
2022/03/06 01:50:40;;;;;;;;;;;;;;;20.37;39.62;102021.88;5074183;28;3969;-49
2022/03/06 01:53:07;;;;;;;;;;;;;;;20.41;39.67;102021.38;5079240;28;4923;-53
2022/03/06 01:55:33;;;;;;;;;;;;;;;20.41;39.64;102025.00;5080780;28;4369;-49
2022/03/06 01:58:00;;;;;;;;;;;;;;;20.39;39.61;102021.25;5080774;28;4223;-49
2022/03/06 02:00:27;;;;;;;;;;;;;;;20.38;39.71;102022.63;5079377;28;4021;-48
2022/03/06 02:02:54;;;;;;;;;;;;;;;20.36;39.69;102013.84;5078366;28;4337;-49
2022/03/06 02:05:21;;;;;;;;;;;;;;;20.36;39.62;102020.34;5079923;28;4005;-48
2022/03/06 02:07:47;;;;;;;;;;;;;;;20.28;39.59;102008.34;5076216;28;4296;-48
2022/03/06 02:10:14;;;;;;;;;;;;;;;20.36;39.60;102013.84;5079772;28;3981;-47
2022/03/06 02:12:41;;;;;;;;;;;;;;;20.34;39.61;102005.84;5080146;28;6180;-50
2022/03/06 02:15:08;;;;;;;;;;;;;;;20.35;39.43;102013.09;5079709;28;4337;-48
2022/03/06 02:17:37;;;;;;;;;;;;;;;20.35;39.47;102007.34;5079732;28;3989;-47
2022/03/06 02:20:05;;;;;;;;;;;;;;;20.34;39.40;102008.72;5075127;28;4171;-48
2022/03/06 02:22:31;;;;;;;;;;;;;;;20.34;39.46;102002.22;5079356;28;4035;-51
2022/03/06 02:24:58;;;;;;;;;;;;;;;20.34;39.39;102002.97;5080052;28;4136;-47
2022/03/06 02:27:24;;;;;;;;;;;;;;;20.35;39.34;101997.97;5076822;28;4051;-49
2022/03/06 02:29:51;;;;;;;;;;;;;;;20.35;39.36;101992.97;5073643;28;4118;-50
2022/03/06 02:32:21;;;;;;;;;;;;;;;20.36;39.60;101991.59;5077385;28;5158;-49
2022/03/06 02:34:48;;;;;;;;;;;;;;;20.36;39.51;101988.69;5078813;28;4032;-48
2022/03/06 02:37:16;;;;;;;;;;;;;;;20.37;39.54;102004.59;5080069;28;3972;-48
2022/03/06 02:39:43;;;;;;;;;;;;;;;20.36;39.52;101996.59;5078492;28;4120;-48
2022/03/06 02:42:10;;;;;;;;;;;;;;;20.36;39.55;101997.34;5078316;28;4174;-48
2022/03/06 02:44:36;;;;;;;;;;;;;;;20.36;39.50;101997.34;5079239;28;4001;-50
2022/03/06 02:47:03;;;;;;;;;;;;;;;20.34;39.57;101994.34;5079996;28;3984;-51
2022/03/06 02:49:29;;;;;;;;;;;;;;;20.35;39.48;101990.09;5078921;28;3923;-49
2022/03/06 02:51:56;;;;;;;;;;;;;;;20.35;39.48;101983.59;5076990;28;4309;-49
2022/03/06 02:54:22;;;;;;;;;;;;;;;20.34;39.57;101982.06;5078448;28;5562;-49
2022/03/06 02:56:48;;;;;;;;;;;;;;;20.34;39.68;101977.09;5080569;28;3972;-49
2022/03/06 02:59:15;;;;;;;;;;;;;;;20.35;39.44;101972.81;5077099;28;4182;-49
2022/03/06 03:01:42;;;;;;;;;;;;;;;20.34;39.45;101979.97;5079164;28;4126;-48
2022/03/06 03:04:08;;;;;;;;;;;;;;;20.35;39.47;101978.59;5077205;28;5751;-50
2022/03/06 03:06:34;;;;;;;;;;;;;;;20.33;39.41;101975.56;5078587;28;4436;-53
2022/03/06 03:09:04;;;;;;;;;;;;;;;20.33;39.46;101974.81;5079543;28;5173;-51
2022/03/06 03:11:31;;;;;;;;;;;;;;;20.32;39.48;101973.31;5077880;28;4048;-52
2022/03/06 03:13:58;;;;;;;;;;;;;;;20.30;39.31;101985.44;5078078;28;4325;-50
2022/03/06 03:16:24;;;;;;;;;;;;;;;20.28;39.35;101974.56;5080706;28;4231;-52
2022/03/06 03:18:51;;;;;;;;;;;;;;;20.27;39.26;101980.94;5078254;28;4467;-51
2022/03/06 03:21:17;;;;;;;;;;;;;;;20.25;39.09;101987.31;5079075;28;5280;-52
2022/03/06 03:23:44;;;;;;;;;;;;;;;20.26;38.88;101973.69;5079170;28;4216;-49
2022/03/06 03:26:10;;;;;;;;;;;;;;;20.25;39.07;101986.56;5081010;28;4026;-49
2022/03/06 03:28:37;;;;;;;;;;;;;;;20.23;39.08;101981.44;5079503;28;4357;-50
2022/03/06 03:31:03;;;;;;;;;;;;;;;20.24;39.11;101977.16;5078161;28;4190;-51
2022/03/06 03:33:29;;;;;;;;;;;;;;;20.26;39.11;101985.94;5078047;28;4122;-49
2022/03/06 03:35:56;;;;;;;;;;;;;;;20.27;39.31;101981.69;5077802;28;4161;-50
2022/03/06 03:38:22;;;;;;;;;;;;;;;20.29;39.41;101981.06;5078761;28;4110;-48
2022/03/06 03:40:49;;;;;;;;;;;;;;;20.30;39.29;101988.34;5076737;28;4198;-47
2022/03/06 03:43:15;;;;;;;;;;;;;;;20.31;39.38;101992.69;5077600;28;4113;-48
2022/03/06 03:45:42;;;;;;;;;;;;;;;20.33;39.34;101992.09;5077795;28;4066;-48
2022/03/06 03:48:08;;;;;;;;;;;;;;;20.33;39.46;101992.09;5077738;28;4221;-48
2022/03/06 03:50:34;;;;;;;;;;;;;;;20.34;39.50;101994.34;5075656;28;3952;-48
2022/03/06 03:53:01;;;;;;;;;;;;;;;20.35;39.47;102001.59;5078380;28;4182;-48
2022/03/06 03:55:27;;;;;;;;;;;;;;;20.36;39.44;101980.06;5077533;28;4216;-50
2022/03/06 03:57:53;;;;;;;;;;;;;;;20.38;39.42;101988.09;5077694;28;4461;-48
2022/03/06 04:00:20;;;;;;;;;;;;;;;20.38;39.37;101991.72;5077891;28;4965;-48
2022/03/06 04:02:46;;;;;;;;;;;;;;;20.39;39.46;101990.34;5077910;28;4157;-49
2022/03/06 04:05:13;;;;;;;;;;;;;;;20.38;39.39;101997.47;5076372;28;4129;-49
2022/03/06 04:07:39;;;;;;;;;;;;;;;20.38;39.38;102000.34;5078014;28;5284;-48
2022/03/06 04:10:05;;;;;;;;;;;;;;;20.37;39.37;101993.09;5077637;28;4158;-49
2022/03/06 04:12:32;;;;;;;;;;;;;;;20.37;39.46;101993.09;5076914;28;4201;-48
2022/03/06 04:14:58;;;;;;;;;;;;;;;20.35;39.40;101995.84;5075945;28;4154;-48
2022/03/06 04:17:24;;;;;;;;;;;;;;;20.36;39.40;101991.59;5078579;28;3940;-47
2022/03/06 04:19:51;;;;;;;;;;;;;;;20.36;39.40;101990.84;5076029;28;4059;-48
2022/03/06 04:22:17;;;;;;;;;;;;;;;20.35;39.44;101992.22;5075555;28;4213;-49
2022/03/06 04:24:43;;;;;;;;;;;;;;;20.35;39.36;101998.72;5077566;28;4212;-47
2022/03/06 04:27:10;;;;;;;;;;;;;;;20.34;39.47;101994.34;5076456;28;4088;-48
2022/03/06 04:29:36;;;;;;;;;;;;;;;20.31;39.44;101989.81;5075546;28;4122;-49
2022/03/06 04:32:03;;;;;;;;;;;;;;;20.32;39.70;101984.81;5076009;28;4379;-50
2022/03/06 04:34:29;;;;;;;;;;;;;;;20.10;39.28;101993.50;5073592;28;4048;-48
2022/03/06 04:36:56;;;;;;;;;;;;;;;20.19;39.43;102003.44;5073086;28;4032;-47
2022/03/06 04:39:22;;;;;;;;;;;;;;;20.27;39.38;101995.31;5078282;28;4199;-48
2022/03/06 04:41:48;;;;;;;;;;;;;;;20.32;39.26;101991.34;5077982;28;4144;-48
2022/03/06 04:44:15;;;;;;;;;;;;;;;20.33;39.20;101997.84;5077139;28;4276;-48
2022/03/06 04:46:41;;;;;;;;;;;;;;;20.34;39.35;102008.72;5078129;28;4035;-48
2022/03/06 04:49:08;;;;;;;;;;;;;;;20.36;39.47;102005.22;5078232;28;4276;-49
2022/03/06 04:51:34;;;;;;;;;;;;;;;20.36;39.69;102005.97;5076049;28;4108;-47
2022/03/06 04:54:01;;;;;;;;;;;;;;;20.36;39.62;102008.84;5076710;28;5428;-48
2022/03/06 04:56:29;;;;;;;;;;;;;;;20.38;39.79;102017.59;5076444;28;4073;-52
2022/03/06 04:58:55;;;;;;;;;;;;;;;20.38;39.79;102016.88;5077706;28;4212;-49
2022/03/06 05:01:22;;;;;;;;;;;;;;;20.37;39.86;102010.34;5075764;28;4067;-47
2022/03/06 05:03:49;;;;;;;;;;;;;;;20.37;39.96;102019.00;5077917;28;4008;-50
2022/03/06 05:06:15;;;;;;;;;;;;;;;20.37;39.94;102010.34;5077870;28;4093;-49
2022/03/06 05:08:42;;;;;;;;;;;;;;;20.36;39.97;102008.09;5075990;28;4113;-48
2022/03/06 05:11:08;;;;;;;;;;;;;;;20.36;39.95;102016.72;5076773;28;4036;-47
2022/03/06 05:13:35;;;;;;;;;;;;;;;20.35;40.00;102010.22;5076671;28;4959;-49
2022/03/06 05:16:01;;;;;;;;;;;;;;;20.35;39.85;102018.84;5076932;28;5992;-47
2022/03/06 05:18:27;;;;;;;;;;;;;;;20.34;39.85;102013.72;5078798;28;4043;-48
2022/03/06 05:20:54;;;;;;;;;;;;;;;20.33;39.97;102007.22;5076900;28;4088;-48
2022/03/06 05:23:20;;;;;;;;;;;;;;;20.34;39.91;102014.50;5075028;28;4236;-47
2022/03/06 05:25:48;;;;;;;;;;;;;;;20.33;39.89;102015.84;5076010;28;5361;-48
2022/03/06 05:28:14;;;;;;;;;;;;;;;20.34;40.01;102011.63;5075876;28;4247;-47
2022/03/06 05:30:41;;;;;;;;;;;;;;;20.34;39.91;102011.63;5076459;28;5301;-49
2022/03/06 05:33:07;;;;;;;;;;;;;;;20.35;40.00;102013.09;5074351;28;4054;-49
2022/03/06 05:35:33;;;;;;;;;;;;;;;20.36;40.14;102011.72;5076633;28;4043;-47
2022/03/06 05:38:00;;;;;;;;;;;;;;;20.37;40.12;102001.72;5075731;28;4145;-46
2022/03/06 05:40:26;;;;;;;;;;;;;;;20.37;40.15;102004.59;5076170;28;4193;-51
2022/03/06 05:42:52;;;;;;;;;;;;;;;20.38;40.22;102002.47;5077098;28;4281;-49
2022/03/06 05:45:19;;;;;;;;;;;;;;;20.39;40.26;102001.13;5080737;28;6382;-47
2022/03/06 05:47:45;;;;;;;;;;;;;;;20.40;40.34;102002.59;5078260;28;4004;-48
2022/03/06 05:50:12;;;;;;;;;;;;;;;20.40;40.28;102008.38;5078649;28;4078;-49
2022/03/06 05:52:39;;;;;;;;;;;;;;;20.39;40.27;102010.50;5080101;28;4043;-47
2022/03/06 05:55:06;;;;;;;;;;;;;;;20.38;40.37;102006.09;5079651;28;5397;-47
2022/03/06 05:57:32;;;;;;;;;;;;;;;20.38;40.34;101999.59;5081130;28;4143;-49
2022/03/06 05:59:58;;;;;;;;;;;;;;;20.37;40.29;102004.59;5079792;28;5269;-47
2022/03/06 06:02:25;;;;;;;;;;;;;;;20.36;40.23;102008.84;5078318;28;4561;-47
2022/03/06 06:04:51;;;;;;;;;;;;;;;20.36;40.27;102011.72;5079687;28;4028;-48
2022/03/06 06:07:18;;;;;;;;;;;;;;;20.36;40.15;102011.72;5079272;28;4187;-48
2022/03/06 06:09:44;;;;;;;;;;;;;;;20.35;40.17;102007.34;5081084;28;4196;-47
2022/03/06 06:12:10;;;;;;;;;;;;;;;20.36;40.05;102010.97;5079216;28;5220;-49
2022/03/06 06:14:37;;;;;;;;;;;;;;;20.35;40.12;102013.09;5078869;28;4148;-51
2022/03/06 06:17:03;;;;;;;;;;;;;;;20.35;40.17;102010.22;5078465;28;4282;-49
2022/03/06 06:19:29;;;;;;;;;;;;;;;20.36;40.12;102008.09;5079638;28;4293;-48
2022/03/06 06:21:56;;;;;;;;;;;;;;;20.35;40.13;102006.59;5079530;28;4904;-47
2022/03/06 06:24:22;;;;;;;;;;;;;;;20.36;40.17;102010.97;5079923;28;4365;-50
2022/03/06 06:26:51;;;;;;;;;;;;;;;20.36;40.22;102013.84;5080078;28;4190;-49
2022/03/06 06:29:18;;;;;;;;;;;;;;;20.36;40.13;102008.84;5078319;28;4100;-48
2022/03/06 06:31:44;;;;;;;;;;;;;;;20.37;40.08;102010.34;5079536;28;4037;-51
2022/03/06 06:34:11;;;;;;;;;;;;;;;20.38;40.14;102006.09;5078705;28;5235;-49
2022/03/06 06:36:37;;;;;;;;;;;;;;;20.38;40.34;102005.34;5079870;28;5381;-47
2022/03/06 06:39:03;;;;;;;;;;;;;;;20.38;40.34;102006.09;5078548;28;4942;-47
2022/03/06 06:41:30;;;;;;;;;;;;;;;20.39;40.26;102013.38;5078826;28;4698;-48
2022/03/06 06:43:56;;;;;;;;;;;;;;;20.40;40.26;102019.88;5078595;28;4379;-47
2022/03/06 06:46:23;;;;;;;;;;;;;;;20.39;40.27;102013.38;5080292;28;4237;-49
2022/03/06 06:48:49;;;;;;;;;;;;;;;20.39;40.22;102016.25;5079465;28;5301;-48
2022/03/06 06:51:15;;;;;;;;;;;;;;;20.38;40.24;102017.59;5078367;28;5021;-49
2022/03/06 06:53:42;;;;;;;;;;;;;;;20.36;40.21;102020.34;5077660;28;4100;-49
2022/03/06 06:56:08;;;;;;;;;;;;;;;20.36;40.26;102014.59;5076976;28;5052;-47
2022/03/06 06:58:35;;;;;;;;;;;;;;;20.38;40.30;102029.13;5077683;28;4012;-48
2022/03/06 07:01:01;;;;;;;;;;;;;;;20.39;40.90;102024.88;5077300;28;4486;-50
2022/03/06 07:03:27;;;;;;;;;;;;;;;20.42;40.56;102025.75;5077005;28;4110;-49
2022/03/06 07:05:56;;;;;;;;;;;;;;;20.42;40.73;102017.13;5069049;28;4349;-49
2022/03/06 07:08:23;;;;;;;;;;;;;;;20.39;41.25;102036.38;5074866;28;4330;-51
2022/03/06 07:10:49;;;;;;;;;;;;;;;20.36;41.16;102031.84;5076115;28;4302;-53
2022/03/06 07:13:16;;;;;;;;;;;;;;;20.33;41.11;102033.09;5075851;28;4295;-49
2022/03/06 07:15:42;;;;;;;;;;;;;;;20.33;41.20;102038.88;5075552;28;4015;-50
2022/03/06 07:18:09;;;;;;;;;;;;;;;20.33;41.14;102033.09;5075942;28;4098;-50
2022/03/06 07:20:35;;;;;;;;;;;;;;;20.34;41.10;102046.13;5077251;28;4372;-49
2022/03/06 07:23:04;;;;;;;;;;;;;;;20.36;41.09;102043.38;5075865;28;4090;-50
2022/03/06 07:25:31;;;;;;;;;;;;;;;20.37;41.05;102039.13;5076478;28;4236;-49
2022/03/06 07:27:57;;;;;;;;;;;;;;;20.40;40.88;102035.00;5075269;28;4198;-53
2022/03/06 07:30:24;;;;;;;;;;;;;;;20.40;40.96;102040.00;5076564;28;4213;-51
2022/03/06 07:32:51;;;;;;;;;;;;;;;20.39;41.07;102047.16;5076046;28;4060;-51
2022/03/06 07:35:17;;;;;;;;;;;;;;;20.41;40.91;102044.38;5076089;28;3969;-50
2022/03/06 07:37:44;;;;;;;;;;;;;;;20.40;41.01;102043.63;5074637;28;3928;-49
2022/03/06 07:40:12;;;;;;;;;;;;;;;20.40;41.05;102043.63;5075333;28;4019;-50
2022/03/06 07:42:38;;;;;;;;;;;;;;;20.41;41.02;102050.91;5075380;28;4035;-51
2022/03/06 07:45:04;;;;;;;;;;;;;;;20.39;41.04;102047.91;5075707;28;4243;-50
2022/03/06 07:47:31;;;;;;;;;;;;;;;20.39;41.01;102050.03;5076777;28;4165;-49
2022/03/06 07:49:57;;;;;;;;;;;;;;;20.37;40.78;102044.88;5075542;28;5322;-52
2022/03/06 07:52:23;;;;;;;;;;;;;;;20.37;41.01;102056.41;5076036;28;4150;-49
2022/03/06 07:54:50;;;;;;;;;;;;;;;20.38;40.81;102051.38;5075183;28;3904;-54
2022/03/06 07:57:16;;;;;;;;;;;;;;;20.39;40.81;102053.66;5075918;28;5304;-51
2022/03/06 07:59:43;;;;;;;;;;;;;;;20.39;40.63;102045.03;5076129;28;5187;-49
2022/03/06 08:02:09;;;;;;;;;;;;;;;20.41;40.47;102056.66;5075171;28;6269;-49
2022/03/06 08:04:36;;;;;;;;;;;;;;;20.40;40.60;102054.41;5074913;28;4124;-50
2022/03/06 08:07:02;;;;;;;;;;;;;;;20.40;40.52;102060.16;5073541;28;4185;-53
2022/03/06 08:09:28;;;;;;;;;;;;;;;20.41;40.51;102055.88;5076097;28;5298;-50
2022/03/06 08:11:55;;;;;;;;;;;;;;;20.42;40.33;102055.28;5074373;28;4555;-51
2022/03/06 08:14:21;;;;;;;;;;;;;;;20.42;40.16;102069.66;5076078;28;4026;-52
2022/03/06 08:16:47;;;;;;;;;;;;;;;20.51;40.30;102057.31;5075035;28;4545;-59
2022/03/06 08:19:14;;;;;;;;;;;;;;;20.61;40.20;102062.25;5074962;28;4544;-53
2022/03/06 08:21:42;;;;;;;;;;;;;;;20.48;40.57;102055.69;5076866;28;4128;-49
2022/03/06 08:24:08;;;;;;;;;;;;;;;20.42;40.79;102063.16;5077612;28;4057;-53
2022/03/06 08:26:34;;;;;;;;;;;;;;;20.42;40.83;102058.16;5077466;28;4178;-51
2022/03/06 08:29:01;;;;;;;;;;;;;;;20.42;40.82;102061.03;5076698;28;5130;-53
2022/03/06 08:31:27;;;;;;;;;;;;;;;20.42;40.71;102054.53;5076525;28;5274;-51
2022/03/06 08:33:54;;;;;;;;;;;;;;;20.47;40.42;102070.69;5071774;28;4223;-59
2022/03/06 08:36:20;;;;;;;;;;;;;;;20.45;40.42;102068.41;5076268;28;4040;-49
2022/03/06 08:38:46;;;;;;;;;;;;;;;20.44;40.34;102072.69;5076670;28;4146;-54
2022/03/06 08:41:13;;;;;;;;;;;;;;;20.44;40.63;102081.31;5075259;28;3970;-51
2022/03/06 08:43:40;;;;;;;;;;;;;;;20.44;40.60;102084.19;5075871;28;4052;-50
2022/03/06 08:46:06;;;;;;;;;;;;;;;20.44;40.50;102089.94;5077517;28;4147;-53
2022/03/06 08:48:36;;;;;;;;;;;;;;;20.46;40.44;102092.22;5077384;28;4067;-51
2022/03/06 08:51:05;;;;;;;;;;;;;;;19.93;37.47;102077.94;5076402;28;4192;-51
2022/03/06 08:53:32;;;;;;;;;;;;;;;19.95;38.49;102080.97;5077531;28;4022;-49
2022/03/06 08:55:58;;;;;;;;;;;;;;;20.23;39.45;102081.34;5073244;28;3972;-49
2022/03/06 08:58:25;;;;;;;;;;;;;;;20.33;39.83;102078.38;5071584;28;5477;-50
2022/03/06 09:00:51;;;;;;;;;;;;;;;20.37;39.87;102079.41;5077549;28;4213;-50
2022/03/06 09:03:17;;;;;;;;;;;;;;;20.41;39.98;102091.19;5075429;28;4209;-50
2022/03/06 09:05:44;;;;;;;;;;;;;;;20.43;40.01;102088.44;5077217;28;5364;-50
2022/03/06 09:08:11;;;;;;;;;;;;;;;20.45;40.08;102088.56;5077133;28;4017;-52
2022/03/06 09:10:38;;;;;;;;;;;;;;;20.47;40.00;102082.19;5076101;28;5239;-49
2022/03/06 09:13:04;;;;;;;;;;;;;;;20.49;40.15;102090.97;5075761;28;4272;-51
2022/03/06 09:15:30;;;;;;;;;;;;;;;20.49;39.98;102083.06;5077616;28;5118;-49
2022/03/06 09:17:57;;;;;;;;;;;;;;;20.49;39.97;102083.06;5077996;28;5444;-48
2022/03/06 09:20:23;;;;;;;;;;;;;;;20.49;39.96;102077.31;5078599;28;4389;-48
2022/03/06 09:22:50;;;;;;;;;;;;;;;20.49;39.91;102077.31;5078211;28;4352;-52
2022/03/06 09:25:16;;;;;;;;;;;;;;;20.49;40.02;102074.44;5079961;28;4034;-52
2022/03/06 09:27:42;;;;;;;;;;;;;;;20.49;39.82;102074.44;5081105;28;4052;-50
2022/03/06 09:30:09;;;;;;;;;;;;;;;20.48;39.81;102081.56;5080697;28;6313;-52
2022/03/06 09:32:35;;;;;;;;;;;;;;;20.48;39.73;102084.47;5079753;28;4017;-50
2022/03/06 09:35:02;;;;;;;;;;;;;;;20.49;39.71;102085.94;5079010;28;4022;-51
2022/03/06 09:37:28;;;;;;;;;;;;;;;20.49;39.62;102085.19;5081664;28;4534;-51
2022/03/06 09:39:54;;;;;;;;;;;;;;;20.46;39.77;102084.31;5080617;28;4184;-51
2022/03/06 09:42:21;;;;;;;;;;;;;;;20.46;39.54;102081.44;5079503;28;4050;-49
2022/03/06 09:44:47;;;;;;;;;;;;;;;20.45;39.52;102079.94;5080246;28;3947;-49
2022/03/06 09:47:14;;;;;;;;;;;;;;;20.44;39.42;102084.19;5078434;28;5233;-50
2022/03/06 09:49:44;;;;;;;;;;;;;;;20.44;39.44;102078.44;5077790;28;4015;-51
2022/03/06 09:52:10;;;;;;;;;;;;;;;20.45;39.46;102074.16;5080849;28;5321;-51
2022/03/06 09:54:41;;;;;;;;;;;;;;;20.43;39.38;102082.69;5080191;28;3919;-54
2022/03/06 09:57:08;;;;;;;;;;;;;;;20.48;39.40;102090.22;5078760;28;4363;-49
2022/03/06 09:59:34;;;;;;;;;;;;;;;20.48;39.25;102084.47;5078873;28;4473;-49
2022/03/06 10:02:01;;;;;;;;;;;;;;;20.48;39.27;102084.47;5079643;28;4140;-49
2022/03/06 10:04:29;;;;;;;;;;;;;;;20.49;39.22;102090.97;5079698;28;4090;-50
2022/03/06 10:06:57;;;;;;;;;;;;;;;20.50;39.15;102087.47;5077755;28;4102;-51
2022/03/06 10:09:23;;;;;;;;;;;;;;;20.50;39.06;102081.72;5079682;28;4172;-49
2022/03/06 10:11:52;;;;;;;;;;;;;;;20.53;39.08;102084.72;5079125;28;3951;-50
2022/03/06 10:14:33;;;;;;;;;;;;;;;20.52;39.07;102078.19;5079284;28;4104;-49
2022/03/06 10:17:09;;;;;;;;;;;;;;;20.55;39.09;102090.59;5078904;28;4724;-49
2022/03/06 10:19:54;;;;;;;;;;;;;;;20.53;38.93;102090.47;5080733;28;3935;-50
2022/03/06 10:22:22;;;;;;;;;;;;;;;20.53;39.03;102085.47;5077477;28;5135;-52
2022/03/06 10:24:52;;;;;;;;;;;;;;;20.53;38.91;102084.72;5080424;28;4795;-52
2022/03/06 10:27:38;;;;;;;;;;;;;;;20.54;38.94;102086.97;5078350;28;4055;-51
2022/03/06 10:30:21;;;;;;;;;;;;;;;20.53;38.86;102084.72;5078598;28;4053;-50
2022/03/06 10:32:47;;;;;;;;;;;;;;;20.53;38.82;102090.47;5077970;28;4139;-58
2022/03/06 10:35:19;;;;;;;;;;;;;;;20.56;38.76;102084.25;5077645;28;4032;-50
2022/03/06 10:37:45;;;;;;;;;;;;;;;20.54;38.81;102084.09;5078866;28;4104;-55
2022/03/06 10:40:14;;;;;;;;;;;;;;;20.54;38.63;102080.47;5060344;28;4081;-50
2022/03/06 10:42:41;;;;;;;;;;;;;;;20.55;38.57;102081.97;5079117;28;3996;-50
2022/03/06 10:45:21;;;;;;;;;;;;;;;20.52;38.64;102089.72;5079117;28;4059;-49
2022/03/06 10:47:47;;;;;;;;;;;;;;;20.41;37.90;102084.66;5078708;28;4184;-50
2022/03/06 10:50:13;;;;;;;;;;;;;;;20.02;36.62;102085.75;5078861;28;3956;-48
2022/03/06 10:52:41;;;;;;;;;;;;;;;19.76;36.77;102087.56;5072761;28;4064;-48
2022/03/06 10:55:08;;;;;;;;;;;;;;;19.54;35.91;102091.75;5076737;28;4237;-49
2022/03/06 10:57:34;;;;;;;;;;;;;;;19.33;35.90;102098.19;5078678;28;4152;-50
2022/03/06 11:00:00;;;;;;;;;;;;;;;19.47;35.61;102093.47;5078214;28;5000;-50
2022/03/06 11:02:27;;;;;;;;;;;;;;;19.55;35.66;102091.16;5079093;28;4028;-46
2022/03/06 11:04:56;;;;;;;;;;;;;;;19.85;35.47;102094.63;5060126;28;4044;-47
2022/03/06 11:07:26;;;;;;;;;;;;;;;20.27;35.78;102088.13;5079109;28;4025;-48
2022/03/06 11:09:52;;;;;;;;;;;;;;;20.30;35.80;102080.38;5078364;28;4055;-47
2022/03/06 11:12:20;;;;;;;;;;;;;;;20.35;36.00;102082.16;5078311;28;5388;-47
2022/03/06 11:14:47;;;;;;;;;;;;;;;20.40;36.10;102077.41;5077269;28;4019;-49
2022/03/06 11:17:13;;;;;;;;;;;;;;;20.53;36.55;102085.47;5078036;28;4044;-46
2022/03/06 11:19:39;;;;;;;;;;;;;;;20.53;36.86;102084.72;5077372;28;4240;-49
2022/03/06 11:22:26;;;;;;;;;;;;;;;20.46;37.04;102081.44;5076944;28;4343;-47
2022/03/06 11:24:53;;;;;;;;;;;;;;;20.46;36.97;102069.94;5064448;28;4242;-47
2022/03/06 11:27:22;;;;;;;;;;;;;;;20.46;37.10;102075.69;5063031;28;4184;-48
2022/03/06 11:29:50;;;;;;;;;;;;;;;20.46;37.23;102074.94;5078573;28;4142;-49
2022/03/06 11:32:24;;;;;;;;;;;;;;;20.53;37.06;102078.97;5076779;28;4543;-47
2022/03/06 11:34:51;;;;;;;;;;;;;;;20.50;37.28;102075.97;5076545;28;3972;-48
2022/03/06 11:37:17;;;;;;;;;;;;;;;20.50;37.41;102075.97;5076880;28;4342;-47
2022/03/06 11:39:44;;;;;;;;;;;;;;;20.51;37.61;102060.19;5076553;28;4199;-48
2022/03/06 11:42:11;;;;;;;;;;;;;;;20.55;37.50;102058.94;5077964;28;5147;-46
2022/03/06 11:44:38;;;;;;;;;;;;;;;20.56;37.52;102051.81;5060097;28;4745;-48
2022/03/06 11:47:11;;;;;;;;;;;;;;;20.58;37.64;102051.97;5077342;28;4207;-49
2022/03/06 11:49:37;;;;;;;;;;;;;;;20.59;37.71;102048.50;5077610;28;5204;-49
2022/03/06 11:52:24;;;;;;;;;;;;;;;20.58;37.73;102038.34;5076989;28;4073;-47
2022/03/06 11:54:50;;;;;;;;;;;;;;;20.61;37.86;102039.22;5075955;28;4070;-47
2022/03/06 11:57:35;;;;;;;;;;;;;;;20.61;38.29;102042.09;5075119;28;4076;-46
2022/03/06 12:00:15;;;;;;;;;;;;;;;20.66;38.10;102040.97;5077475;28;3969;-50
2022/03/06 12:02:45;;;;;;;;;;;;;;;20.62;38.64;102040.75;5078029;28;3940;-48
2022/03/06 12:05:11;;;;;;;;;;;;;;;20.62;38.82;102040.75;5077016;28;4130;-48
2022/03/06 12:07:38;;;;;;;;;;;;;;;20.62;38.85;102034.97;5074925;28;3975;-47
2022/03/06 12:10:06;;;;;;;;;;;;;;;20.62;39.13;102041.47;5077110;28;3974;-47
2022/03/06 12:12:33;;;;;;;;;;;;;;;20.61;39.10;102037.09;5078373;28;5245;-49
2022/03/06 12:15:00;;;;;;;;;;;;;;;20.62;39.58;102037.88;5077327;28;3976;-47
2022/03/06 12:17:30;;;;;;;;;;;;;;;20.62;39.66;102027.09;5074167;28;4147;-48
2022/03/06 12:19:56;;;;;;;;;;;;;;;20.63;39.67;102034.34;5076388;28;4222;-48
2022/03/06 12:22:28;;;;;;;;;;;;;;;20.64;39.66;102032.97;5076837;28;4349;-47
2022/03/06 12:25:04;;;;;;;;;;;;;;;20.64;39.85;102038.75;5076854;28;4693;-47
2022/03/06 12:27:30;;;;;;;;;;;;;;;20.64;39.81;102029.34;5077768;28;4063;-47
2022/03/06 12:29:57;;;;;;;;;;;;;;;20.64;40.06;102020.72;5077409;28;4024;-50
2022/03/06 12:32:29;;;;;;;;;;;;;;;20.64;39.80;102020.72;5076174;28;4067;-46
2022/03/06 12:34:57;;;;;;;;;;;;;;;20.62;40.23;102017.72;5075733;28;4052;-52
2022/03/06 12:37:23;;;;;;;;;;;;;;;20.63;40.37;102019.94;5078062;28;4618;-47
2022/03/06 12:39:50;;;;;;;;;;;;;;;20.62;40.27;102017.72;5075345;28;4335;-48
2022/03/06 12:42:22;;;;;;;;;;;;;;;20.62;40.27;102011.97;5077691;28;5171;-46
2022/03/06 12:44:48;;;;;;;;;;;;;;;20.64;40.09;102020.72;5076364;28;5134;-47
2022/03/06 12:47:15;;;;;;;;;;;;;;;20.63;40.30;102013.44;5074520;28;5276;-47